Régionale - MD - CL N°3 Bergues (59) - Femme

Date : 20/02/2011
Distance : 3,200 km

Place Nom Licence Catégorie Club Temps min/km CN à J-60 Points Différence Nouveau CN
1 FINAS Celine 8445 D21 5907NO 0:30:49 9'37 4998 4512 -486 5003
2 LAMINETTE Pauline 14911 D20 5907NO 0:30:49 9'37 4335 4512 +177 4424
3 BRUNOT Yoann 19423 H35 5909NO 0:32:34 10'10 3859 4270 +411 4232
4 GUILMAIN Melanie 20572 D16 6208NO 0:34:18 10'43 3786 4054 +268 3956
5 TANTART Delphine 19136 D20 5907NO 0:34:42 10'50 4281 4007 -274 4281
6 MOULIERE M-Helene 2893 D35 0207PI 0:35:13 11'00 3948 3404
7 ROUX Catherine 13270 D40 6205NO 0:40:38 12'41 3994 3422 -572 4015
8 DURIEZ Caroline 24170 D21 6208NO 0:48:43 15'13 2854 2343
9 CAMBIER Emily 23844 D21 5906NO 0:52:43 16'28 2638 2003
10 GERBEAUX Marie-jeanne 22417 D55 6205NO 0:55:13 17'15 2814 2518 -296 2881
11 GOZE Anne 22931 D55 5907NO 0:56:49 17'45 2012 2447 +435 2216
12 ROLIN Charlotte 23947 D35 6208NO 0:57:26 17'56 2421 2092
13 PASSEPONT Audrey 22418 D21 6205NO 0:57:47 18'03 2361 2406 +45 2429
14 TORZ-DRUON Magali 10081 D55 5906NO 1:02:29 19'31 2087 2225 +138 2137
15 JUDAS Sylvaine 13635 D55 6208NO 1:02:38 19'34 1734 2220 +486 2287
16 RICHARD Nicole 14245 D60 0207PI 1:03:57 19'59 3274 2174 -1100 3274
17 BOUCHEZ Marie-Pascale 24241 D40 6208NO 1:04:32 20'10 2155 2077
18 LUDEWIG-JAMES Carol 15894 D70 5907NO 1:11:37 22'22 2160 1942 -218 2160
19 BEN KHALED Isabelle 13761 D50 5908NO 1:21:13 25'22 1712 1644
20 DELANNOY Aurore 21271 D35 6208NO 1:24:05 26'16 2238 1654 -584 2238
21 GALET Pascal 16957 H45 6208NO 1:26:47 27'07 0 1602 0
22 EJSMONT Martine 14164 D65 6208NO 1:28:46 27'44 1806 1566 -240 1697
23 GALET Isabelle 15398 D45 6208NO 1:31:31 28'35 0 1519 1458
GERBEAUX Nathanaëlle 18312 D18 6205NO pm None 4684 0 4684
VILETTE Nathalie 23599 D40 6205NO pm None 0 0 0
BELLE Emmanuelle 8258 D35 6205NO pm None 0 0